createdAt,value
2022-11-30T00:01:54.686Z,43.88
2022-11-30T00:04:30.032Z,45.22
2022-11-30T00:07:02.232Z,45.33
2022-11-30T00:09:34.733Z,44.50
2022-11-30T00:12:07.373Z,45.13
2022-11-30T00:14:39.952Z,44.55
2022-11-30T00:17:12.133Z,45.13
2022-11-30T00:19:47.572Z,42.80
2022-11-30T00:22:19.632Z,44.85
2022-11-30T00:24:52.338Z,44.72
2022-11-30T00:27:24.356Z,43.13
2022-11-30T00:29:57.114Z,45.10
2022-11-30T00:32:30.411Z,44.92
2022-11-30T00:35:05.476Z,45.35
2022-11-30T00:37:38.499Z,42.50
2022-11-30T00:40:12.196Z,45.50
2022-11-30T00:42:44.469Z,43.55
2022-11-30T00:45:58.862Z,43.83
2022-11-30T00:48:31.371Z,46.10
2022-11-30T00:51:06.980Z,42.58
2022-11-30T00:53:39.292Z,44.58
2022-11-30T00:56:13.154Z,45.50
2022-11-30T00:58:45.319Z,45.30
2022-11-30T01:01:17.694Z,44.47
2022-11-30T01:03:49.933Z,45.42
2022-11-30T01:06:25.138Z,45.30
2022-11-30T01:08:57.461Z,45.50
2022-11-30T01:11:32.271Z,44.88
2022-11-30T01:14:04.772Z,45.35
2022-11-30T01:16:37.372Z,45.30
2022-11-30T01:19:09.252Z,45.10
2022-11-30T01:21:44.414Z,44.78
2022-11-30T01:24:16.617Z,43.95
2022-11-30T01:26:48.972Z,44.40
2022-11-30T01:29:21.172Z,44.92
2022-11-30T01:31:53.692Z,46.35
2022-11-30T01:34:25.735Z,46.05
2022-11-30T01:37:00.879Z,45.40
2022-11-30T01:39:33.051Z,45.40
2022-11-30T01:42:05.441Z,44.33
2022-11-30T01:44:54.358Z,45.08
2022-11-30T01:47:31.953Z,45.92
2022-11-30T01:50:09.444Z,46.03
2022-11-30T01:53:26.752Z,46.83
2022-11-30T01:55:59.012Z,48.65
2022-11-30T01:58:34.354Z,47.75
2022-11-30T02:01:06.730Z,47.78
2022-11-30T02:03:45.514Z,47.35
2022-11-30T02:06:18.733Z,48.05
2022-11-30T02:08:55.214Z,47.10
2022-11-30T02:11:30.553Z,46.15
2022-11-30T02:14:19.095Z,47.20
2022-11-30T02:16:59.673Z,47.22
2022-11-30T02:19:59.022Z,47.38
2022-11-30T02:22:46.956Z,46.75
2022-11-30T02:25:30.140Z,47.30
2022-11-30T02:28:27.474Z,47.90
2022-11-30T02:31:06.507Z,48.58
2022-11-30T02:33:40.511Z,48.45
2022-11-30T02:36:13.772Z,46.85
2022-11-30T02:38:46.196Z,46.92
2022-11-30T02:41:18.713Z,46.35
2022-11-30T02:43:51.275Z,48.05
2022-11-30T02:46:34.272Z,46.90
2022-11-30T02:49:13.531Z,46.85
2022-11-30T02:51:49.072Z,44.67
2022-11-30T02:54:22.076Z,47.35
2022-11-30T02:56:54.493Z,46.97
2022-11-30T02:59:26.673Z,44.83
2022-11-30T03:02:02.090Z,46.33
2022-11-30T03:04:34.233Z,45.42
2022-11-30T03:07:06.992Z,46.40
2022-11-30T03:09:38.933Z,45.00
2022-11-30T03:12:11.274Z,46.05
2022-11-30T03:14:43.077Z,45.47
2022-11-30T03:17:18.259Z,45.65
2022-11-30T03:19:50.094Z,43.08
2022-11-30T03:22:22.274Z,44.72
2022-11-30T03:24:54.034Z,48.03
2022-11-30T03:27:26.362Z,45.80
2022-11-30T03:29:58.592Z,44.80
2022-11-30T03:32:33.833Z,43.65
2022-11-30T03:35:05.452Z,45.85
2022-11-30T03:37:37.395Z,45.75
2022-11-30T03:40:10.673Z,44.38
2022-11-30T03:42:43.213Z,46.20
2022-11-30T03:45:15.152Z,46.60
2022-11-30T03:47:50.254Z,46.03
2022-11-30T03:50:22.031Z,45.10
2022-11-30T03:52:54.160Z,46.70
2022-11-30T03:55:25.893Z,46.15
2022-11-30T03:57:58.013Z,46.15
2022-11-30T04:00:29.814Z,45.30
2022-11-30T04:03:04.675Z,45.47
2022-11-30T04:05:36.513Z,46.20
2022-11-30T04:08:08.656Z,39.08
2022-11-30T04:10:40.614Z,46.42
2022-11-30T04:13:12.662Z,44.58
2022-11-30T04:15:44.400Z,47.35
2022-11-30T04:18:20.536Z,46.45
2022-11-30T04:20:54.412Z,46.67
2022-11-30T04:23:27.891Z,44.78
2022-11-30T04:26:00.352Z,45.22
2022-11-30T04:29:11.715Z,45.03
2022-11-30T04:31:58.334Z,47.00
2022-11-30T04:34:33.013Z,44.15
2022-11-30T04:37:04.672Z,45.65
2022-11-30T04:39:38.195Z,45.03
2022-11-30T04:42:10.973Z,44.90
2022-11-30T04:44:42.932Z,45.20
2022-11-30T04:47:14.655Z,45.67
2022-11-30T04:49:49.513Z,47.80
2022-11-30T04:52:21.372Z,46.28
2022-11-30T04:54:53.773Z,47.08
2022-11-30T04:57:25.891Z,46.75
2022-11-30T04:59:57.975Z,45.75
2022-11-30T05:02:30.031Z,45.75
2022-11-30T05:05:07.919Z,45.67
2022-11-30T05:07:40.991Z,45.40
2022-11-30T05:10:14.717Z,47.35
2022-11-30T05:12:46.934Z,47.28
2022-11-30T05:15:19.634Z,46.58
2022-11-30T05:17:51.701Z,47.15
2022-11-30T05:20:26.833Z,45.55
2022-11-30T05:22:58.934Z,46.13
2022-11-30T05:25:31.413Z,46.22
2022-11-30T05:28:03.351Z,44.95
2022-11-30T05:30:35.991Z,46.17
2022-11-30T05:33:08.095Z,44.78
2022-11-30T05:35:44.294Z,45.40
2022-11-30T05:38:16.318Z,45.00
2022-11-30T05:40:48.914Z,47.30
2022-11-30T05:43:21.832Z,47.22
2022-11-30T05:45:54.378Z,42.60
2022-11-30T05:48:26.413Z,46.13
2022-11-30T05:51:08.374Z,42.83
2022-11-30T05:56:41.923Z,44.25
2022-11-30T05:59:14.314Z,45.17
2022-11-30T06:01:47.140Z,44.88
2022-11-30T06:04:19.463Z,45.67
2022-11-30T06:06:56.023Z,46.38
2022-11-30T06:09:28.091Z,44.72
2022-11-30T06:12:00.810Z,44.92
2022-11-30T06:14:36.179Z,44.38
2022-11-30T06:17:08.994Z,44.65
2022-11-30T06:19:41.233Z,45.13
2022-11-30T06:22:16.393Z,43.08
2022-11-30T06:24:48.846Z,42.53
2022-11-30T06:27:21.664Z,43.83
2022-11-30T06:29:53.953Z,44.45
2022-11-30T06:32:26.453Z,44.35
2022-11-30T06:34:58.591Z,45.92
2022-11-30T06:37:36.774Z,45.42
2022-11-30T06:40:11.243Z,44.17
2022-11-30T06:42:43.753Z,45.47
2022-11-30T06:45:16.093Z,44.28
2022-11-30T06:50:39.511Z,44.42
2022-11-30T06:53:14.794Z,45.47
2022-11-30T06:55:46.817Z,44.40
2022-11-30T06:58:19.494Z,44.92
2022-11-30T07:00:51.756Z,42.63
2022-11-30T07:03:24.253Z,40.72
2022-11-30T07:05:56.292Z,44.30
2022-11-30T07:08:31.494Z,43.72
2022-11-30T07:11:03.974Z,41.72
2022-11-30T07:13:36.594Z,43.60
2022-11-30T07:16:10.847Z,44.70
2022-11-30T07:18:43.312Z,42.95
2022-11-30T07:21:15.476Z,41.25
2022-11-30T07:24:02.795Z,41.90
2022-11-30T07:26:35.117Z,39.92
2022-11-30T07:29:07.581Z,45.33
2022-11-30T07:31:39.921Z,43.30
2022-11-30T07:34:13.755Z,44.00
2022-11-30T07:36:46.241Z,42.28
2022-11-30T07:39:21.564Z,42.28
2022-11-30T07:41:53.873Z,41.63
2022-11-30T07:44:26.462Z,43.58
2022-11-30T07:46:58.671Z,41.40
2022-11-30T07:49:33.794Z,43.40
2022-11-30T07:52:06.432Z,42.08
2022-11-30T07:54:41.753Z,41.83
2022-11-30T07:57:17.314Z,40.88
2022-11-30T07:59:50.049Z,40.85
2022-11-30T08:02:22.557Z,40.95
2022-11-30T08:04:58.597Z,42.75
2022-11-30T08:07:30.718Z,42.28
2022-11-30T08:10:05.895Z,42.33
2022-11-30T08:12:38.212Z,40.70
2022-11-30T08:15:19.823Z,40.88
2022-11-30T08:17:55.536Z,40.60
2022-11-30T08:20:28.299Z,40.13
2022-11-30T08:23:02.687Z,40.78
2022-11-30T08:25:38.250Z,41.45
2022-11-30T08:28:10.651Z,41.45
2022-11-30T08:30:43.602Z,43.42
2022-11-30T08:33:16.163Z,42.30
2022-11-30T08:35:49.085Z,41.28
2022-11-30T08:38:21.846Z,40.97
2022-11-30T08:41:00.884Z,41.60
2022-11-30T08:43:33.770Z,41.53
2022-11-30T08:49:20.393Z,41.40
2022-11-30T08:54:51.455Z,42.88
2022-11-30T08:57:27.282Z,42.97
2022-11-30T08:59:59.571Z,42.63
2022-11-30T09:02:32.562Z,41.47
2022-11-30T09:05:05.207Z,42.05
2022-11-30T09:07:38.526Z,38.72
2022-11-30T09:10:23.172Z,42.40
2022-11-30T09:12:59.012Z,41.55
2022-11-30T09:15:31.687Z,40.20
2022-11-30T09:18:04.852Z,40.47
2022-11-30T09:20:37.812Z,40.17
2022-11-30T09:23:10.852Z,40.38
2022-11-30T09:25:44.371Z,42.10
2022-11-30T09:28:20.291Z,39.15
2022-11-30T09:30:53.049Z,38.88
2022-11-30T09:33:26.057Z,38.13
2022-11-30T09:36:00.131Z,40.00
2022-11-30T09:38:33.327Z,39.95
2022-11-30T09:41:10.324Z,39.15
2022-11-30T09:43:54.843Z,39.50
2022-11-30T09:46:32.644Z,38.95
2022-11-30T09:49:08.011Z,40.67
2022-11-30T09:51:48.884Z,39.17
2022-11-30T09:54:35.805Z,38.72
2022-11-30T09:57:22.368Z,39.00
2022-11-30T10:00:00.981Z,39.90
2022-11-30T10:02:35.928Z,39.80
2022-11-30T10:05:16.523Z,37.90
2022-11-30T10:08:05.282Z,41.20
2022-11-30T10:10:43.685Z,39.70
2022-11-30T10:13:33.617Z,40.22
2022-11-30T10:16:21.244Z,38.78
2022-11-30T10:19:01.404Z,40.00
2022-11-30T10:21:51.284Z,41.90
2022-11-30T10:24:39.124Z,42.35
2022-11-30T10:27:20.767Z,39.70
2022-11-30T10:29:53.619Z,40.05
2022-11-30T10:32:39.303Z,40.20
2022-11-30T10:35:23.571Z,39.42
2022-11-30T10:37:59.539Z,41.85
2022-11-30T10:40:40.891Z,41.22
2022-11-30T10:43:23.054Z,40.70
2022-11-30T10:45:55.843Z,40.33
2022-11-30T10:48:44.385Z,41.95
2022-11-30T10:51:19.930Z,40.50
2022-11-30T10:53:52.039Z,41.83
2022-11-30T10:56:29.568Z,41.55
2022-11-30T10:59:07.395Z,41.97
2022-11-30T11:01:46.340Z,41.65
2022-11-30T11:04:24.001Z,41.47
2022-11-30T11:07:00.830Z,39.80
2022-11-30T11:09:42.883Z,40.85
2022-11-30T11:12:21.097Z,41.95
2022-11-30T11:15:12.390Z,42.72
2022-11-30T11:17:43.985Z,41.95
2022-11-30T11:20:39.689Z,39.70
2022-11-30T11:23:29.257Z,40.95
2022-11-30T11:26:03.580Z,42.28
2022-11-30T11:28:37.830Z,42.50
2022-11-30T11:31:22.256Z,42.90
2022-11-30T11:33:57.628Z,41.47
2022-11-30T11:36:36.981Z,42.55
2022-11-30T11:39:29.815Z,41.75
2022-11-30T11:42:05.642Z,41.10
2022-11-30T11:44:37.505Z,40.25
2022-11-30T11:47:12.329Z,41.15
2022-11-30T11:49:43.970Z,41.17
2022-11-30T11:52:23.159Z,41.95
2022-11-30T11:55:00.610Z,42.30
2022-11-30T11:57:43.671Z,42.60
2022-11-30T12:00:21.438Z,43.00
2022-11-30T12:03:03.279Z,40.60
2022-11-30T12:05:45.119Z,40.85
2022-11-30T12:08:34.143Z,42.05
2022-11-30T12:11:12.233Z,41.72
2022-11-30T12:13:46.407Z,40.55
2022-11-30T12:16:38.225Z,44.42
2022-11-30T12:19:18.753Z,42.67
2022-11-30T12:22:11.993Z,41.90
2022-11-30T12:25:16.781Z,42.80
2022-11-30T12:28:02.369Z,40.08
2022-11-30T12:30:50.721Z,42.20
2022-11-30T12:33:43.297Z,44.75
2022-11-30T12:36:23.575Z,44.53
2022-11-30T12:39:01.949Z,44.63
2022-11-30T12:41:45.265Z,42.85
2022-11-30T12:44:38.525Z,44.60
2022-11-30T12:47:29.154Z,45.97
2022-11-30T12:50:22.219Z,46.20
2022-11-30T12:53:03.910Z,42.80
2022-11-30T12:55:43.540Z,47.40
2022-11-30T12:58:25.818Z,49.08
2022-11-30T13:01:13.670Z,46.22
2022-11-30T13:03:51.655Z,47.60
2022-11-30T13:06:27.790Z,49.08
2022-11-30T13:09:05.642Z,49.97
2022-11-30T13:11:41.383Z,49.78
2022-11-30T13:14:20.275Z,50.58
2022-11-30T13:16:54.046Z,49.70
2022-11-30T13:19:44.296Z,53.33
2022-11-30T13:22:25.739Z,50.45
2022-11-30T13:25:06.205Z,49.28
2022-11-30T13:27:47.496Z,54.25
2022-11-30T13:30:35.224Z,48.83
2022-11-30T13:33:39.096Z,48.05
2022-11-30T13:36:29.037Z,47.42
2022-11-30T13:39:28.210Z,46.47
2022-11-30T13:42:34.388Z,49.35
2022-11-30T13:45:38.937Z,45.42
2022-11-30T13:48:33.908Z,48.15
2022-11-30T13:51:05.665Z,48.03
2022-11-30T13:53:39.429Z,46.50
2022-11-30T13:56:37.081Z,48.70
2022-11-30T13:59:41.199Z,44.65
2022-11-30T14:02:45.124Z,48.85
2022-11-30T16:28:03.346Z,54.75
2022-11-30T16:30:36.948Z,52.78
2022-11-30T16:33:09.873Z,50.85
2022-11-30T16:35:45.192Z,51.65
2022-11-30T16:38:37.727Z,49.53
2022-11-30T16:41:18.054Z,50.72
2022-11-30T16:43:54.808Z,48.42
2022-11-30T16:46:29.030Z,48.80
2022-11-30T16:49:00.610Z,50.70
2022-11-30T16:51:36.409Z,48.33
2022-11-30T16:54:08.335Z,50.25
2022-11-30T16:56:40.586Z,49.58
2022-11-30T16:59:17.039Z,48.22
2022-11-30T17:01:53.240Z,49.28
2022-11-30T17:04:29.907Z,47.33
2022-11-30T17:07:03.025Z,46.97
2022-11-30T17:09:35.186Z,46.33
2022-11-30T17:12:07.652Z,44.85
2022-11-30T17:14:42.055Z,45.00
2022-11-30T17:23:40.508Z,47.80
2022-11-30T17:26:12.857Z,46.25
2022-11-30T17:28:45.629Z,47.10
2022-11-30T17:31:20.809Z,47.38
2022-11-30T17:33:53.695Z,47.83
2022-11-30T17:36:27.072Z,49.38
2022-11-30T17:38:59.769Z,48.13
2022-11-30T17:41:32.178Z,47.47
2022-11-30T17:44:05.197Z,44.45
2022-11-30T17:46:45.333Z,48.72
2022-11-30T17:49:20.871Z,48.25
2022-11-30T17:51:53.228Z,52.00
2022-11-30T17:54:25.757Z,48.85
2022-11-30T17:56:57.385Z,50.00
2022-11-30T17:59:29.408Z,50.08
2022-11-30T18:02:03.443Z,48.78
2022-11-30T18:04:35.516Z,49.78
2022-11-30T18:07:07.218Z,49.20
2022-11-30T18:09:42.542Z,49.85
2022-11-30T18:12:14.844Z,49.85
2022-11-30T18:14:47.376Z,49.97
2022-11-30T18:17:21.922Z,50.13
2022-11-30T18:19:55.073Z,49.17
2022-11-30T18:22:28.623Z,48.72
2022-11-30T18:25:00.492Z,48.05
2022-11-30T18:27:32.318Z,48.80
2022-11-30T18:30:09.848Z,46.97
2022-11-30T18:32:44.747Z,47.22
2022-11-30T18:35:16.869Z,48.17
2022-11-30T18:37:48.818Z,48.35
2022-11-30T18:40:20.872Z,49.65
2022-11-30T18:42:52.392Z,44.40
2022-11-30T18:45:24.435Z,47.55
2022-11-30T18:48:00.749Z,49.17
2022-11-30T18:50:33.079Z,51.53
2022-11-30T18:53:04.830Z,50.47
2022-11-30T18:55:37.864Z,49.30
2022-11-30T18:58:18.739Z,46.22
2022-11-30T19:01:11.090Z,48.15
2022-11-30T19:03:45.698Z,48.67
2022-11-30T19:06:17.659Z,49.28
2022-11-30T19:08:50.205Z,45.92
2022-11-30T19:11:22.398Z,46.25
2022-11-30T19:13:57.505Z,48.15
2022-11-30T19:16:31.390Z,46.78
2022-11-30T19:19:07.566Z,48.33
2022-11-30T19:21:39.855Z,45.30
2022-11-30T19:24:12.688Z,46.28
2022-11-30T19:26:44.619Z,46.33
2022-11-30T19:29:17.062Z,47.00
2022-11-30T19:31:49.030Z,44.90
2022-11-30T19:34:23.267Z,43.90
2022-11-30T19:36:55.461Z,43.83
2022-11-30T19:39:27.109Z,33.50
2022-11-30T19:41:59.130Z,43.25
2022-11-30T19:44:30.612Z,43.38
2022-11-30T19:47:02.745Z,34.20
2022-11-30T19:49:37.160Z,44.55
2022-11-30T19:52:09.234Z,45.20
2022-11-30T19:54:40.458Z,45.20
2022-11-30T19:57:12.060Z,43.20
2022-11-30T19:59:43.977Z,45.72
2022-11-30T20:02:15.659Z,43.38
2022-11-30T20:04:49.702Z,40.92
2022-11-30T20:07:21.436Z,42.58
2022-11-30T20:09:52.954Z,39.80
2022-11-30T20:12:24.894Z,41.33
2022-11-30T20:14:56.150Z,42.10
2022-11-30T20:17:30.134Z,41.70
2022-11-30T20:20:04.357Z,42.58
2022-11-30T20:22:36.584Z,43.13
2022-11-30T20:25:08.925Z,41.45
2022-11-30T20:27:40.588Z,41.00
2022-11-30T20:30:12.765Z,42.85
2022-11-30T20:32:44.367Z,41.67
2022-11-30T20:35:18.918Z,42.47
2022-11-30T20:38:02.835Z,42.75
2022-11-30T20:40:34.892Z,44.17
2022-11-30T20:43:07.292Z,44.28
2022-11-30T20:45:39.573Z,45.72
2022-11-30T20:48:11.679Z,45.17
2022-11-30T20:51:00.984Z,45.78
2022-11-30T20:53:38.792Z,43.75
2022-11-30T20:56:11.632Z,42.83
2022-11-30T20:58:44.173Z,44.63
2022-11-30T21:01:18.413Z,46.83
2022-11-30T21:03:51.255Z,41.85
2022-11-30T21:06:28.280Z,43.67
2022-11-30T21:09:00.794Z,45.60
2022-11-30T21:11:33.580Z,47.92
2022-11-30T21:14:06.024Z,45.85
2022-11-30T21:16:37.464Z,41.13
2022-11-30T21:19:12.386Z,42.88
2022-11-30T21:21:46.728Z,40.90
2022-11-30T21:24:18.512Z,44.22
2022-11-30T21:26:50.137Z,42.83
2022-11-30T21:29:22.049Z,43.33
2022-11-30T21:31:53.351Z,43.13
2022-11-30T21:34:25.923Z,43.05
2022-11-30T21:37:00.102Z,44.22
2022-11-30T21:39:32.972Z,42.63
2022-11-30T21:42:04.120Z,42.38
2022-11-30T21:44:36.002Z,42.85
2022-11-30T21:47:10.578Z,43.85
2022-11-30T21:49:42.464Z,43.97
2022-11-30T21:52:16.990Z,40.90
2022-11-30T21:54:53.572Z,40.80
2022-11-30T21:57:25.360Z,43.67
2022-11-30T21:59:58.744Z,40.20
2022-11-30T22:02:31.141Z,44.33
2022-11-30T22:05:03.108Z,44.65
2022-11-30T22:07:37.449Z,42.25
2022-11-30T22:10:10.947Z,42.95
2022-11-30T22:12:45.176Z,41.97
2022-11-30T22:15:19.217Z,41.95
2022-11-30T22:17:51.541Z,43.50
2022-11-30T22:20:27.349Z,44.58
2022-11-30T22:23:03.399Z,42.45
2022-11-30T22:25:35.630Z,41.80
2022-11-30T22:28:07.570Z,42.05
2022-11-30T22:30:40.019Z,43.78
2022-11-30T22:33:12.238Z,44.42
2022-11-30T22:35:46.420Z,39.90
2022-11-30T22:38:20.304Z,41.65
2022-11-30T22:40:52.017Z,38.88
2022-11-30T22:43:23.100Z,38.45
2022-11-30T22:45:56.455Z,40.60
2022-11-30T22:48:27.628Z,40.45
2022-11-30T22:50:59.004Z,37.80
2022-11-30T22:53:33.226Z,42.38
2022-11-30T22:56:06.413Z,42.35
2022-11-30T22:58:38.314Z,42.03
2022-11-30T23:01:16.948Z,42.78
2022-11-30T23:03:51.848Z,40.67
2022-11-30T23:06:25.836Z,42.20
2022-11-30T23:09:01.460Z,39.90
2022-11-30T23:11:34.125Z,43.08
2022-11-30T23:14:08.442Z,44.17
2022-11-30T23:16:41.156Z,44.33
2022-11-30T23:19:16.638Z,41.90
2022-11-30T23:21:50.223Z,44.17
2022-11-30T23:24:25.164Z,43.85
2022-11-30T23:26:57.258Z,44.25
2022-11-30T23:29:28.610Z,45.58
2022-11-30T23:32:00.278Z,43.35
2022-11-30T23:34:31.807Z,42.17
2022-11-30T23:37:05.087Z,44.15
2022-11-30T23:39:40.210Z,44.15
2022-11-30T23:42:12.062Z,43.75
2022-11-30T23:44:43.561Z,43.80
2022-11-30T23:47:18.549Z,44.97
2022-11-30T23:49:50.847Z,45.05
2022-11-30T23:52:23.621Z,43.85
2022-11-30T23:54:57.483Z,42.55
2022-11-30T23:57:30.096Z,42.47
